Weather at Oakland Troy Airport

Public forecast

Using degrees Fahrenheit for public forecast. Weather courtesy of forecast.io.

Current aviation weather report (METAR) for Oakland Troy Airport

Retrieved 2020/10/27 17:35 UTC (0 seconds ago):

KVLL 271735Z AUTO 29006KT 3SM -RA BKN012 OVC017 05/03 A3026 RMK AO2 T00510032

Closest aviation forecast (TAF) to Oakland Troy Airport

Closest forecast is Coleman A. Young Municipal Airport, 10.9 nm (20.3 km) SE. Retrieved 2020/10/27 12:22 UTC (5 hours ago):

TAF KDET 271120Z 2712/2812 31005KT P6SM SCT050 OVC070 FM271400 26005KT P6SM SCT025 BKN040 OVC060 FM271700 25005KT P6SM BKN025 OVC040 TEMPO 2717/2721 P6SM -SHRA BKN015 OVC040 FM280100 24004KT P6SM BKN035 FM280700 24007KT P6SM SKC